Temperatuur

Neerslag

Windstoten

Onweer

Weerstation

Weerstation

Ons weerstation streamt live data naar onze server. 

Vliegweer

[Source: ADDS]
METAR
EBBR 171620Z 31008KT 270V340 CAVOK 24/10 Q1016 NOSIG =
TAF
EBBR 171100Z 1712/1818 29006KT CAVOK =

StormCell is een non profit organisatie zonder oogmerk tot sensatie